sensor_id;sensor_type;location;lat;lon;timestamp;P1;durP1;ratioP1;P2;durP2;ratioP2
47856;SDS011;33618;49.972;8.242;2022-09-09T00:02:25;2.58;;;1.02;;
47856;SDS011;33618;49.972;8.242;2022-09-09T00:08:25;2.85;;;1.10;;
47856;SDS011;33618;49.972;8.242;2022-09-09T00:11:40;1.90;;;0.98;;
47856;SDS011;33618;49.972;8.242;2022-09-09T00:20:12;2.20;;;1.10;;
47856;SDS011;33618;49.972;8.242;2022-09-09T00:39:01;1.73;;;1.08;;
47856;SDS011;33618;49.972;8.242;2022-09-09T00:48:23;2.42;;;1.17;;
47856;SDS011;33618;49.972;8.242;2022-09-09T00:51:29;2.53;;;1.10;;
47856;SDS011;33618;49.972;8.242;2022-09-09T00:57:29;1.75;;;0.90;;
47856;SDS011;33618;49.972;8.242;2022-09-09T01:00:23;4.22;;;1.33;;
47856;SDS011;33618;49.972;8.242;2022-09-09T01:06:25;2.28;;;1.25;;
47856;SDS011;33618;49.972;8.242;2022-09-09T01:09:21;2.85;;;0.98;;
47856;SDS011;33618;49.972;8.242;2022-09-09T01:15:27;1.77;;;1.00;;
47856;SDS011;33618;49.972;8.242;2022-09-09T01:18:16;1.10;;;1.00;;
47856;SDS011;33618;49.972;8.242;2022-09-09T01:24:27;2.70;;;1.23;;
47856;SDS011;33618;49.972;8.242;2022-09-09T01:27:15;3.08;;;1.20;;
47856;SDS011;33618;49.972;8.242;2022-09-09T01:30:04;3.63;;;1.30;;
47856;SDS011;33618;49.972;8.242;2022-09-09T01:32:57;1.05;;;1.00;;
47856;SDS011;33618;49.972;8.242;2022-09-09T01:35:46;3.00;;;1.02;;
47856;SDS011;33618;49.972;8.242;2022-09-09T01:38:39;3.28;;;1.23;;
47856;SDS011;33618;49.972;8.242;2022-09-09T01:41:25;1.33;;;1.10;;
47856;SDS011;33618;49.972;8.242;2022-09-09T01:47:53;3.35;;;1.23;;
47856;SDS011;33618;49.972;8.242;2022-09-09T01:50:38;3.10;;;1.40;;
47856;SDS011;33618;49.972;8.242;2022-09-09T01:53:24;1.27;;;1.08;;
47856;SDS011;33618;49.972;8.242;2022-09-09T02:04:54;2.20;;;0.95;;
47856;SDS011;33618;49.972;8.242;2022-09-09T02:07:50;2.58;;;1.00;;
47856;SDS011;33618;49.972;8.242;2022-09-09T02:13:54;1.95;;;1.05;;
47856;SDS011;33618;49.972;8.242;2022-09-09T02:16:51;1.95;;;1.15;;
47856;SDS011;33618;49.972;8.242;2022-09-09T02:19:54;1.90;;;1.27;;
47856;SDS011;33618;49.972;8.242;2022-09-09T02:22:50;2.25;;;1.10;;
47856;SDS011;33618;49.972;8.242;2022-09-09T02:25:37;1.25;;;1.00;;
47856;SDS011;33618;49.972;8.242;2022-09-09T02:28:27;1.48;;;1.00;;
47856;SDS011;33618;49.972;8.242;2022-09-09T02:31:17;1.20;;;1.00;;
47856;SDS011;33618;49.972;8.242;2022-09-09T02:34:05;3.50;;;1.10;;
47856;SDS011;33618;49.972;8.242;2022-09-09T02:36:55;2.58;;;1.13;;
47856;SDS011;33618;49.972;8.242;2022-09-09T02:39:44;3.22;;;1.30;;
47856;SDS011;33618;49.972;8.242;2022-09-09T02:42:30;1.92;;;1.33;;
47856;SDS011;33618;49.972;8.242;2022-09-09T03:33:14;3.58;;;1.10;;
47856;SDS011;33618;49.972;8.242;2022-09-09T03:36:01;1.92;;;1.10;;
47856;SDS011;33618;49.972;8.242;2022-09-09T03:38:47;3.60;;;1.38;;
47856;SDS011;33618;49.972;8.242;2022-09-09T03:41:32;4.05;;;1.30;;
47856;SDS011;33618;49.972;8.242;2022-09-09T03:44:19;3.45;;;1.30;;
47856;SDS011;33618;49.972;8.242;2022-09-09T03:50:59;4.30;;;1.27;;
47856;SDS011;33618;49.972;8.242;2022-09-09T03:53:47;8.10;;;1.30;;
47856;SDS011;33618;49.972;8.242;2022-09-09T03:56:35;3.20;;;1.70;;
47856;SDS011;33618;49.972;8.242;2022-09-09T03:59:22;1.88;;;1.15;;
47856;SDS011;33618;49.972;8.242;2022-09-09T04:02:10;2.45;;;0.98;;
47856;SDS011;33618;49.972;8.242;2022-09-09T04:04:56;1.23;;;1.02;;
47856;SDS011;33618;49.972;8.242;2022-09-09T04:07:43;3.97;;;1.00;;
47856;SDS011;33618;49.972;8.242;2022-09-09T04:10:34;2.97;;;1.27;;
47856;SDS011;33618;49.972;8.242;2022-09-09T04:13:23;5.35;;;1.40;;
47856;SDS011;33618;49.972;8.242;2022-09-09T04:21:05;5.35;;;2.40;;
47856;SDS011;33618;49.972;8.242;2022-09-09T04:23:53;3.88;;;2.10;;
47856;SDS011;33618;49.972;8.242;2022-09-09T04:26:38;2.35;;;1.48;;
47856;SDS011;33618;49.972;8.242;2022-09-09T04:29:26;2.47;;;1.30;;
47856;SDS011;33618;49.972;8.242;2022-09-09T04:32:11;3.35;;;1.10;;
47856;SDS011;33618;49.972;8.242;2022-09-09T04:34:57;3.55;;;1.50;;
47856;SDS011;33618;49.972;8.242;2022-09-09T04:37:45;1.35;;;1.13;;
47856;SDS011;33618;49.972;8.242;2022-09-09T04:40:31;2.70;;;1.42;;
47856;SDS011;33618;49.972;8.242;2022-09-09T04:43:17;4.00;;;1.20;;
47856;SDS011;33618;49.972;8.242;2022-09-09T04:49:46;1.50;;;1.30;;
47856;SDS011;33618;49.972;8.242;2022-09-09T04:52:34;5.78;;;1.45;;
47856;SDS011;33618;49.972;8.242;2022-09-09T04:55:21;4.00;;;2.03;;
47856;SDS011;33618;49.972;8.242;2022-09-09T04:58:07;3.65;;;1.48;;
47856;SDS011;33618;49.972;8.242;2022-09-09T05:00:54;3.72;;;1.60;;
47856;SDS011;33618;49.972;8.242;2022-09-09T05:03:47;3.33;;;1.48;;
47856;SDS011;33618;49.972;8.242;2022-09-09T05:06:33;2.17;;;1.25;;
47856;SDS011;33618;49.972;8.242;2022-09-09T05:09:22;2.10;;;1.30;;
47856;SDS011;33618;49.972;8.242;2022-09-09T05:12:11;3.72;;;1.65;;
47856;SDS011;33618;49.972;8.242;2022-09-09T05:14:56;4.72;;;1.42;;
47856;SDS011;33618;49.972;8.242;2022-09-09T05:17:41;6.75;;;1.67;;
47856;SDS011;33618;49.972;8.242;2022-09-09T05:20:27;2.45;;;1.17;;
47856;SDS011;33618;49.972;8.242;2022-09-09T05:26:03;3.50;;;1.20;;
47856;SDS011;33618;49.972;8.242;2022-09-09T05:28:49;3.55;;;1.20;;
47856;SDS011;33618;49.972;8.242;2022-09-09T05:31:38;1.90;;;1.30;;
47856;SDS011;33618;49.972;8.242;2022-09-09T05:34:24;7.28;;;1.30;;
47856;SDS011;33618;49.972;8.242;2022-09-09T05:37:10;2.33;;;1.20;;
47856;SDS011;33618;49.972;8.242;2022-09-09T05:39:55;2.13;;;1.30;;
47856;SDS011;33618;49.972;8.242;2022-09-09T05:42:42;2.00;;;1.08;;
47856;SDS011;33618;49.972;8.242;2022-09-09T05:53:15;1.85;;;1.00;;
47856;SDS011;33618;49.972;8.242;2022-09-09T05:59:51;6.93;;;1.52;;
47856;SDS011;33618;49.972;8.242;2022-09-09T06:06:21;3.53;;;1.10;;
47856;SDS011;33618;49.972;8.242;2022-09-09T06:09:10;3.38;;;1.20;;
47856;SDS011;33618;49.972;8.242;2022-09-09T06:11:56;2.47;;;1.10;;
47856;SDS011;33618;49.972;8.242;2022-09-09T06:14:45;2.45;;;1.20;;
47856;SDS011;33618;49.972;8.242;2022-09-09T06:17:31;2.20;;;1.20;;
47856;SDS011;33618;49.972;8.242;2022-09-09T06:20:20;2.72;;;1.40;;
47856;SDS011;33618;49.972;8.242;2022-09-09T06:23:10;1.30;;;1.20;;
47856;SDS011;33618;49.972;8.242;2022-09-09T06:26:10;1.55;;;1.20;;
47856;SDS011;33618;49.972;8.242;2022-09-09T06:28:58;3.10;;;1.25;;
47856;SDS011;33618;49.972;8.242;2022-09-09T06:31:45;2.88;;;1.20;;
47856;SDS011;33618;49.972;8.242;2022-09-09T06:34:34;6.70;;;1.40;;
47856;SDS011;33618;49.972;8.242;2022-09-09T06:37:21;2.72;;;1.17;;
47856;SDS011;33618;49.972;8.242;2022-09-09T06:40:08;3.60;;;1.30;;
47856;SDS011;33618;49.972;8.242;2022-09-09T06:42:59;4.07;;;1.27;;
47856;SDS011;33618;49.972;8.242;2022-09-09T06:46:09;3.60;;;1.23;;
47856;SDS011;33618;49.972;8.242;2022-09-09T06:48:55;2.75;;;1.10;;
47856;SDS011;33618;49.972;8.242;2022-09-09T06:51:44;3.13;;;1.33;;
47856;SDS011;33618;49.972;8.242;2022-09-09T06:54:31;2.38;;;1.40;;
47856;SDS011;33618;49.972;8.242;2022-09-09T06:57:19;2.75;;;1.30;;
47856;SDS011;33618;49.972;8.242;2022-09-09T07:00:21;3.72;;;1.58;;
47856;SDS011;33618;49.972;8.242;2022-09-09T07:10:50;2.60;;;1.60;;
47856;SDS011;33618;49.972;8.242;2022-09-09T07:13:43;4.55;;;1.90;;
47856;SDS011;33618;49.972;8.242;2022-09-09T07:16:32;5.53;;;1.92;;
47856;SDS011;33618;49.972;8.242;2022-09-09T07:19:21;4.07;;;1.70;;
47856;SDS011;33618;49.972;8.242;2022-09-09T07:22:12;3.80;;;1.90;;
47856;SDS011;33618;49.972;8.242;2022-09-09T07:24:58;2.35;;;1.83;;
47856;SDS011;33618;49.972;8.242;2022-09-09T07:27:44;3.05;;;2.10;;
47856;SDS011;33618;49.972;8.242;2022-09-09T07:30:30;3.55;;;2.15;;
47856;SDS011;33618;49.972;8.242;2022-09-09T07:33:17;2.97;;;2.10;;
47856;SDS011;33618;49.972;8.242;2022-09-09T07:36:06;2.10;;;1.90;;
47856;SDS011;33618;49.972;8.242;2022-09-09T07:38:59;4.32;;;2.28;;
47856;SDS011;33618;49.972;8.242;2022-09-09T07:41:49;4.82;;;2.40;;
47856;SDS011;33618;49.972;8.242;2022-09-09T07:44:38;7.55;;;2.78;;
47856;SDS011;33618;49.972;8.242;2022-09-09T07:47:25;6.43;;;2.72;;
47856;SDS011;33618;49.972;8.242;2022-09-09T07:50:15;5.05;;;2.70;;
47856;SDS011;33618;49.972;8.242;2022-09-09T07:53:00;5.07;;;2.53;;
47856;SDS011;33618;49.972;8.242;2022-09-09T07:55:49;5.40;;;2.40;;
47856;SDS011;33618;49.972;8.242;2022-09-09T07:58:36;5.05;;;2.53;;
47856;SDS011;33618;49.972;8.242;2022-09-09T08:01:30;4.70;;;2.47;;
47856;SDS011;33618;49.972;8.242;2022-09-09T08:08:05;3.53;;;2.40;;
47856;SDS011;33618;49.972;8.242;2022-09-09T08:10:51;5.35;;;2.58;;
47856;SDS011;33618;49.972;8.242;2022-09-09T08:13:40;7.43;;;2.15;;
47856;SDS011;33618;49.972;8.242;2022-09-09T08:19:17;3.28;;;2.10;;
47856;SDS011;33618;49.972;8.242;2022-09-09T08:22:05;3.47;;;2.00;;
47856;SDS011;33618;49.972;8.242;2022-09-09T08:24:52;5.85;;;1.92;;
47856;SDS011;33618;49.972;8.242;2022-09-09T08:27:38;6.35;;;2.35;;
47856;SDS011;33618;49.972;8.242;2022-09-09T08:30:26;5.07;;;1.80;;
47856;SDS011;33618;49.972;8.242;2022-09-09T08:33:12;4.75;;;1.70;;
47856;SDS011;33618;49.972;8.242;2022-09-09T08:36:00;4.10;;;1.80;;
47856;SDS011;33618;49.972;8.242;2022-09-09T08:38:50;5.45;;;2.10;;
47856;SDS011;33618;49.972;8.242;2022-09-09T08:48:19;4.45;;;1.95;;
47856;SDS011;33618;49.972;8.242;2022-09-09T08:51:30;2.78;;;1.70;;
47856;SDS011;33618;49.972;8.242;2022-09-09T08:54:21;6.00;;;1.73;;
47856;SDS011;33618;49.972;8.242;2022-09-09T08:57:27;7.85;;;1.85;;
47856;SDS011;33618;49.972;8.242;2022-09-09T09:00:13;5.60;;;1.80;;
47856;SDS011;33618;49.972;8.242;2022-09-09T09:06:03;3.08;;;1.48;;
47856;SDS011;33618;49.972;8.242;2022-09-09T09:12:15;4.65;;;1.40;;
47856;SDS011;33618;49.972;8.242;2022-09-09T09:15:23;6.95;;;1.33;;
47856;SDS011;33618;49.972;8.242;2022-09-09T09:18:16;2.85;;;1.27;;
47856;SDS011;33618;49.972;8.242;2022-09-09T09:23:58;3.45;;;1.10;;
47856;SDS011;33618;49.972;8.242;2022-09-09T09:26:45;4.10;;;1.50;;
47856;SDS011;33618;49.972;8.242;2022-09-09T09:29:31;2.60;;;1.25;;
47856;SDS011;33618;49.972;8.242;2022-09-09T09:32:34;3.92;;;1.25;;
47856;SDS011;33618;49.972;8.242;2022-09-09T09:35:25;3.55;;;1.17;;
47856;SDS011;33618;49.972;8.242;2022-09-09T09:38:21;3.88;;;1.10;;
47856;SDS011;33618;49.972;8.242;2022-09-09T09:44:31;3.55;;;1.35;;
47856;SDS011;33618;49.972;8.242;2022-09-09T09:47:21;2.72;;;1.02;;
47856;SDS011;33618;49.972;8.242;2022-09-09T09:50:16;3.03;;;0.98;;
47856;SDS011;33618;49.972;8.242;2022-09-09T09:53:05;5.45;;;1.17;;
47856;SDS011;33618;49.972;8.242;2022-09-09T09:56:05;2.67;;;1.20;;
47856;SDS011;33618;49.972;8.242;2022-09-09T09:58:55;2.80;;;1.20;;
47856;SDS011;33618;49.972;8.242;2022-09-09T10:01:42;2.67;;;1.42;;
47856;SDS011;33618;49.972;8.242;2022-09-09T10:08:28;2.58;;;1.20;;
47856;SDS011;33618;49.972;8.242;2022-09-09T10:11:22;1.90;;;1.17;;
47856;SDS011;33618;49.972;8.242;2022-09-09T10:14:33;5.50;;;1.45;;
47856;SDS011;33618;49.972;8.242;2022-09-09T10:17:51;2.47;;;0.93;;
47856;SDS011;33618;49.972;8.242;2022-09-09T10:20:49;3.10;;;1.00;;
47856;SDS011;33618;49.972;8.242;2022-09-09T10:36:16;4.78;;;0.98;;
47856;SDS011;33618;49.972;8.242;2022-09-09T10:39:17;1.42;;;0.90;;
47856;SDS011;33618;49.972;8.242;2022-09-09T10:56:51;2.78;;;0.90;;
47856;SDS011;33618;49.972;8.242;2022-09-09T10:59:42;1.17;;;0.70;;
47856;SDS011;33618;49.972;8.242;2022-09-09T11:02:35;1.88;;;1.00;;
47856;SDS011;33618;49.972;8.242;2022-09-09T11:09:25;2.58;;;1.00;;
47856;SDS011;33618;49.972;8.242;2022-09-09T11:12:19;3.00;;;0.82;;
47856;SDS011;33618;49.972;8.242;2022-09-09T11:15:14;3.55;;;1.80;;
47856;SDS011;33618;49.972;8.242;2022-09-09T11:18:05;1.65;;;0.95;;
47856;SDS011;33618;49.972;8.242;2022-09-09T11:21:00;6.10;;;1.60;;
47856;SDS011;33618;49.972;8.242;2022-09-09T11:23:50;2.15;;;0.90;;
47856;SDS011;33618;49.972;8.242;2022-09-09T11:26:45;2.95;;;1.00;;
47856;SDS011;33618;49.972;8.242;2022-09-09T11:38:46;2.22;;;1.00;;
47856;SDS011;33618;49.972;8.242;2022-09-09T11:41:36;2.47;;;1.00;;
47856;SDS011;33618;49.972;8.242;2022-09-09T11:44:27;2.85;;;1.10;;
47856;SDS011;33618;49.972;8.242;2022-09-09T11:47:21;2.65;;;1.00;;
47856;SDS011;33618;49.972;8.242;2022-09-09T11:59:02;2.78;;;1.05;;
47856;SDS011;33618;49.972;8.242;2022-09-09T12:02:14;3.92;;;1.10;;
47856;SDS011;33618;49.972;8.242;2022-09-09T12:12:50;2.85;;;1.10;;
47856;SDS011;33618;49.972;8.242;2022-09-09T12:15:36;4.45;;;1.10;;
47856;SDS011;33618;49.972;8.242;2022-09-09T12:18:33;6.15;;;1.10;;
47856;SDS011;33618;49.972;8.242;2022-09-09T12:21:26;2.65;;;0.95;;
47856;SDS011;33618;49.972;8.242;2022-09-09T12:24:20;4.82;;;1.40;;
47856;SDS011;33618;49.972;8.242;2022-09-09T12:27:26;1.42;;;0.90;;
47856;SDS011;33618;49.972;8.242;2022-09-09T12:30:19;2.03;;;1.00;;
47856;SDS011;33618;49.972;8.242;2022-09-09T12:33:12;2.65;;;1.00;;
47856;SDS011;33618;49.972;8.242;2022-09-09T12:36:02;4.32;;;1.20;;
47856;SDS011;33618;49.972;8.242;2022-09-09T12:38:49;2.33;;;1.20;;
47856;SDS011;33618;49.972;8.242;2022-09-09T12:41:39;4.63;;;0.85;;
47856;SDS011;33618;49.972;8.242;2022-09-09T12:49:37;0.90;;;0.60;;
47856;SDS011;33618;49.972;8.242;2022-09-09T12:52:28;2.35;;;1.00;;
47856;SDS011;33618;49.972;8.242;2022-09-09T12:55:20;2.10;;;0.68;;
47856;SDS011;33618;49.972;8.242;2022-09-09T12:58:11;2.22;;;0.60;;
47856;SDS011;33618;49.972;8.242;2022-09-09T13:01:01;2.00;;;0.70;;
47856;SDS011;33618;49.972;8.242;2022-09-09T13:03:49;2.58;;;0.93;;
47856;SDS011;33618;49.972;8.242;2022-09-09T13:14:20;0.90;;;0.40;;
47856;SDS011;33618;49.972;8.242;2022-09-09T13:17:20;0.75;;;0.50;;
47856;SDS011;33618;49.972;8.242;2022-09-09T13:20:17;2.00;;;0.40;;
47856;SDS011;33618;49.972;8.242;2022-09-09T13:23:04;0.50;;;0.47;;
47856;SDS011;33618;49.972;8.242;2022-09-09T13:25:56;1.35;;;0.65;;
47856;SDS011;33618;49.972;8.242;2022-09-09T13:28:47;1.00;;;0.47;;
47856;SDS011;33618;49.972;8.242;2022-09-09T13:31:34;0.68;;;0.40;;
47856;SDS011;33618;49.972;8.242;2022-09-09T13:34:28;1.65;;;0.40;;
47856;SDS011;33618;49.972;8.242;2022-09-09T13:40:21;2.08;;;0.63;;
47856;SDS011;33618;49.972;8.242;2022-09-09T13:43:18;1.35;;;0.50;;
47856;SDS011;33618;49.972;8.242;2022-09-09T13:49:19;1.73;;;0.80;;
47856;SDS011;33618;49.972;8.242;2022-09-09T13:52:10;2.30;;;0.68;;
47856;SDS011;33618;49.972;8.242;2022-09-09T13:54:58;2.15;;;0.93;;
47856;SDS011;33618;49.972;8.242;2022-09-09T13:57:54;3.40;;;0.60;;
47856;SDS011;33618;49.972;8.242;2022-09-09T14:00:41;2.22;;;0.65;;
47856;SDS011;33618;49.972;8.242;2022-09-09T14:03:28;2.92;;;0.60;;
47856;SDS011;33618;49.972;8.242;2022-09-09T14:10:16;1.75;;;0.85;;
47856;SDS011;33618;49.972;8.242;2022-09-09T14:13:02;2.97;;;0.85;;
47856;SDS011;33618;49.972;8.242;2022-09-09T14:15:49;1.92;;;0.80;;
47856;SDS011;33618;49.972;8.242;2022-09-09T14:18:35;2.03;;;0.75;;
47856;SDS011;33618;49.972;8.242;2022-09-09T14:21:26;2.95;;;1.20;;
47856;SDS011;33618;49.972;8.242;2022-09-09T14:24:16;3.15;;;0.82;;
47856;SDS011;33618;49.972;8.242;2022-09-09T14:27:02;8.10;;;1.00;;
47856;SDS011;33618;49.972;8.242;2022-09-09T14:29:50;2.00;;;0.88;;
47856;SDS011;33618;49.972;8.242;2022-09-09T14:32:36;2.10;;;1.23;;
47856;SDS011;33618;49.972;8.242;2022-09-09T14:35:21;4.65;;;1.00;;
47856;SDS011;33618;49.972;8.242;2022-09-09T14:38:07;1.42;;;0.82;;
47856;SDS011;33618;49.972;8.242;2022-09-09T14:40:53;2.10;;;1.02;;
47856;SDS011;33618;49.972;8.242;2022-09-09T14:43:39;3.08;;;0.95;;
47856;SDS011;33618;49.972;8.242;2022-09-09T14:46:24;3.17;;;1.20;;
47856;SDS011;33618;49.972;8.242;2022-09-09T14:49:10;2.45;;;1.20;;
47856;SDS011;33618;49.972;8.242;2022-09-09T14:51:57;5.20;;;1.30;;
47856;SDS011;33618;49.972;8.242;2022-09-09T14:54:42;2.17;;;1.00;;
47856;SDS011;33618;49.972;8.242;2022-09-09T14:57:28;1.67;;;0.98;;
47856;SDS011;33618;49.972;8.242;2022-09-09T15:00:14;2.20;;;0.80;;
47856;SDS011;33618;49.972;8.242;2022-09-09T15:05:46;2.13;;;1.00;;
47856;SDS011;33618;49.972;8.242;2022-09-09T15:08:32;2.67;;;1.00;;
47856;SDS011;33618;49.972;8.242;2022-09-09T15:11:18;1.80;;;0.80;;
47856;SDS011;33618;49.972;8.242;2022-09-09T15:14:05;3.15;;;0.93;;
47856;SDS011;33618;49.972;8.242;2022-09-09T15:16:52;4.13;;;1.10;;
47856;SDS011;33618;49.972;8.242;2022-09-09T15:19:37;1.90;;;0.80;;
47856;SDS011;33618;49.972;8.242;2022-09-09T15:22:23;3.78;;;1.20;;
47856;SDS011;33618;49.972;8.242;2022-09-09T15:25:09;2.10;;;1.00;;
47856;SDS011;33618;49.972;8.242;2022-09-09T15:27:54;2.17;;;0.80;;
47856;SDS011;33618;49.972;8.242;2022-09-09T15:30:41;1.25;;;0.75;;
47856;SDS011;33618;49.972;8.242;2022-09-09T15:33:27;3.30;;;1.30;;
47856;SDS011;33618;49.972;8.242;2022-09-09T15:38:59;1.10;;;0.60;;
47856;SDS011;33618;49.972;8.242;2022-09-09T15:41:46;1.40;;;0.70;;
47856;SDS011;33618;49.972;8.242;2022-09-09T15:44:40;2.20;;;1.02;;
47856;SDS011;33618;49.972;8.242;2022-09-09T15:47:29;1.38;;;0.80;;
47856;SDS011;33618;49.972;8.242;2022-09-09T15:50:14;1.75;;;0.80;;
47856;SDS011;33618;49.972;8.242;2022-09-09T15:53:01;1.77;;;0.80;;
47856;SDS011;33618;49.972;8.242;2022-09-09T15:55:47;1.33;;;0.88;;
47856;SDS011;33618;49.972;8.242;2022-09-09T15:58:35;1.75;;;0.80;;
47856;SDS011;33618;49.972;8.242;2022-09-09T16:01:20;0.75;;;0.70;;
47856;SDS011;33618;49.972;8.242;2022-09-09T16:04:07;0.95;;;0.52;;
47856;SDS011;33618;49.972;8.242;2022-09-09T16:06:54;0.50;;;0.40;;
47856;SDS011;33618;49.972;8.242;2022-09-09T16:17:03;1.40;;;0.50;;
47856;SDS011;33618;49.972;8.242;2022-09-09T16:19:52;0.63;;;0.63;;
47856;SDS011;33618;49.972;8.242;2022-09-09T16:22:38;1.90;;;0.70;;
47856;SDS011;33618;49.972;8.242;2022-09-09T16:25:25;1.75;;;0.90;;
47856;SDS011;33618;49.972;8.242;2022-09-09T16:28:13;3.20;;;0.60;;
47856;SDS011;33618;49.972;8.242;2022-09-09T16:31:03;2.58;;;0.70;;
47856;SDS011;33618;49.972;8.242;2022-09-09T16:33:51;1.13;;;0.50;;
47856;SDS011;33618;49.972;8.242;2022-09-09T16:36:37;2.15;;;0.80;;
47856;SDS011;33618;49.972;8.242;2022-09-09T16:39:26;1.70;;;0.63;;
47856;SDS011;33618;49.972;8.242;2022-09-09T16:42:12;1.90;;;0.75;;
47856;SDS011;33618;49.972;8.242;2022-09-09T16:45:00;0.88;;;0.70;;
47856;SDS011;33618;49.972;8.242;2022-09-09T16:47:46;1.33;;;0.60;;
47856;SDS011;33618;49.972;8.242;2022-09-09T16:50:37;0.47;;;0.40;;
47856;SDS011;33618;49.972;8.242;2022-09-09T16:53:26;1.60;;;0.80;;
47856;SDS011;33618;49.972;8.242;2022-09-09T16:56:15;2.85;;;0.77;;
47856;SDS011;33618;49.972;8.242;2022-09-09T16:59:11;1.75;;;0.68;;
47856;SDS011;33618;49.972;8.242;2022-09-09T17:02:03;2.15;;;0.73;;
47856;SDS011;33618;49.972;8.242;2022-09-09T17:04:49;2.05;;;0.80;;
47856;SDS011;33618;49.972;8.242;2022-09-09T17:15:00;7.38;;;1.00;;
47856;SDS011;33618;49.972;8.242;2022-09-09T17:17:47;6.72;;;1.00;;
47856;SDS011;33618;49.972;8.242;2022-09-09T17:20:38;4.97;;;0.90;;
47856;SDS011;33618;49.972;8.242;2022-09-09T17:23:31;2.63;;;0.90;;
47856;SDS011;33618;49.972;8.242;2022-09-09T17:26:18;3.50;;;0.97;;
47856;SDS011;33618;49.972;8.242;2022-09-09T17:29:08;4.40;;;1.00;;
47856;SDS011;33618;49.972;8.242;2022-09-09T17:31:54;3.03;;;0.80;;
47856;SDS011;33618;49.972;8.242;2022-09-09T17:34:39;3.83;;;1.10;;
47856;SDS011;33618;49.972;8.242;2022-09-09T17:37:25;2.75;;;0.77;;
47856;SDS011;33618;49.972;8.242;2022-09-09T17:40:11;2.05;;;1.20;;
47856;SDS011;33618;49.972;8.242;2022-09-09T17:42:57;3.45;;;1.08;;
47856;SDS011;33618;49.972;8.242;2022-09-09T17:45:42;3.05;;;1.00;;
47856;SDS011;33618;49.972;8.242;2022-09-09T17:48:32;1.95;;;0.82;;
47856;SDS011;33618;49.972;8.242;2022-09-09T17:51:21;1.88;;;1.00;;
47856;SDS011;33618;49.972;8.242;2022-09-09T17:54:12;4.18;;;1.23;;
47856;SDS011;33618;49.972;8.242;2022-09-09T17:56:59;2.42;;;1.20;;
47856;SDS011;33618;49.972;8.242;2022-09-09T17:59:45;2.85;;;0.88;;
47856;SDS011;33618;49.972;8.242;2022-09-09T18:02:30;4.55;;;1.10;;
47856;SDS011;33618;49.972;8.242;2022-09-09T18:05:16;2.88;;;0.98;;
47856;SDS011;33618;49.972;8.242;2022-09-09T18:11:46;2.78;;;0.93;;
47856;SDS011;33618;49.972;8.242;2022-09-09T18:14:34;1.67;;;0.68;;
47856;SDS011;33618;49.972;8.242;2022-09-09T18:17:20;2.75;;;1.08;;
47856;SDS011;33618;49.972;8.242;2022-09-09T18:20:05;2.65;;;0.70;;
47856;SDS011;33618;49.972;8.242;2022-09-09T18:22:51;2.33;;;0.73;;
47856;SDS011;33618;49.972;8.242;2022-09-09T18:25:40;4.25;;;0.80;;
47856;SDS011;33618;49.972;8.242;2022-09-09T18:28:26;0.85;;;0.77;;
47856;SDS011;33618;49.972;8.242;2022-09-09T18:31:12;0.68;;;0.60;;
47856;SDS011;33618;49.972;8.242;2022-09-09T18:33:59;0.73;;;0.63;;
47856;SDS011;33618;49.972;8.242;2022-09-09T18:36:51;5.03;;;1.00;;
47856;SDS011;33618;49.972;8.242;2022-09-09T18:39:38;1.90;;;0.60;;
47856;SDS011;33618;49.972;8.242;2022-09-09T18:42:24;1.77;;;0.88;;
47856;SDS011;33618;49.972;8.242;2022-09-09T18:45:10;3.20;;;1.10;;
47856;SDS011;33618;49.972;8.242;2022-09-09T18:47:56;0.88;;;0.80;;
47856;SDS011;33618;49.972;8.242;2022-09-09T18:50:41;4.20;;;0.85;;
47856;SDS011;33618;49.972;8.242;2022-09-09T18:53:26;2.55;;;1.00;;
47856;SDS011;33618;49.972;8.242;2022-09-09T18:56:12;4.15;;;0.90;;
47856;SDS011;33618;49.972;8.242;2022-09-09T18:58:59;2.10;;;0.90;;
47856;SDS011;33618;49.972;8.242;2022-09-09T19:01:46;1.70;;;0.82;;
47856;SDS011;33618;49.972;8.242;2022-09-09T19:04:32;2.25;;;0.80;;
47856;SDS011;33618;49.972;8.242;2022-09-09T19:07:18;2.35;;;0.90;;
47856;SDS011;33618;49.972;8.242;2022-09-09T19:16:36;0.88;;;0.80;;
47856;SDS011;33618;49.972;8.242;2022-09-09T19:19:24;1.33;;;0.82;;
47856;SDS011;33618;49.972;8.242;2022-09-09T19:22:12;2.55;;;0.90;;
47856;SDS011;33618;49.972;8.242;2022-09-09T19:24:57;1.95;;;0.98;;
47856;SDS011;33618;49.972;8.242;2022-09-09T19:27:43;2.15;;;1.13;;
47856;SDS011;33618;49.972;8.242;2022-09-09T19:30:29;1.58;;;1.10;;
47856;SDS011;33618;49.972;8.242;2022-09-09T19:33:14;3.47;;;0.93;;
47856;SDS011;33618;49.972;8.242;2022-09-09T19:36:02;2.47;;;0.88;;
47856;SDS011;33618;49.972;8.242;2022-09-09T19:38:51;1.00;;;0.90;;
47856;SDS011;33618;49.972;8.242;2022-09-09T19:41:38;1.45;;;0.88;;
47856;SDS011;33618;49.972;8.242;2022-09-09T19:44:23;1.42;;;0.90;;
47856;SDS011;33618;49.972;8.242;2022-09-09T19:47:09;1.77;;;0.90;;
47856;SDS011;33618;49.972;8.242;2022-09-09T19:49:54;1.70;;;0.90;;
47856;SDS011;33618;49.972;8.242;2022-09-09T19:52:40;1.83;;;0.85;;
47856;SDS011;33618;49.972;8.242;2022-09-09T19:55:25;2.15;;;1.10;;
47856;SDS011;33618;49.972;8.242;2022-09-09T19:58:12;2.78;;;1.23;;
47856;SDS011;33618;49.972;8.242;2022-09-09T20:01:08;1.63;;;0.70;;
47856;SDS011;33618;49.972;8.242;2022-09-09T20:03:56;1.63;;;0.90;;
47856;SDS011;33618;49.972;8.242;2022-09-09T20:06:44;3.75;;;0.85;;
47856;SDS011;33618;49.972;8.242;2022-09-09T20:17:12;1.40;;;0.90;;
47856;SDS011;33618;49.972;8.242;2022-09-09T20:19:58;1.08;;;0.90;;
47856;SDS011;33618;49.972;8.242;2022-09-09T20:22:44;2.25;;;0.90;;
47856;SDS011;33618;49.972;8.242;2022-09-09T20:25:29;1.17;;;1.02;;
47856;SDS011;33618;49.972;8.242;2022-09-09T20:28:15;1.58;;;1.10;;
47856;SDS011;33618;49.972;8.242;2022-09-09T20:31:04;2.38;;;0.98;;
47856;SDS011;33618;49.972;8.242;2022-09-09T20:33:50;4.47;;;1.30;;
47856;SDS011;33618;49.972;8.242;2022-09-09T20:36:36;0.77;;;0.77;;
47856;SDS011;33618;49.972;8.242;2022-09-09T20:39:22;2.25;;;1.27;;
47856;SDS011;33618;49.972;8.242;2022-09-09T20:42:09;2.17;;;1.50;;
47856;SDS011;33618;49.972;8.242;2022-09-09T20:44:55;5.90;;;3.10;;
47856;SDS011;33618;49.972;8.242;2022-09-09T20:47:40;7.28;;;4.88;;
47856;SDS011;33618;49.972;8.242;2022-09-09T20:50:26;1.60;;;1.30;;
47856;SDS011;33618;49.972;8.242;2022-09-09T20:53:12;2.75;;;1.48;;
47856;SDS011;33618;49.972;8.242;2022-09-09T20:55:58;2.30;;;2.10;;
47856;SDS011;33618;49.972;8.242;2022-09-09T20:58:48;3.63;;;1.80;;
47856;SDS011;33618;49.972;8.242;2022-09-09T21:01:33;8.52;;;1.45;;
47856;SDS011;33618;49.972;8.242;2022-09-09T21:04:19;3.40;;;1.33;;
47856;SDS011;33618;49.972;8.242;2022-09-09T21:07:06;2.88;;;1.45;;
47856;SDS011;33618;49.972;8.242;2022-09-09T21:13:35;1.83;;;0.93;;
47856;SDS011;33618;49.972;8.242;2022-09-09T21:19:06;2.20;;;0.95;;
47856;SDS011;33618;49.972;8.242;2022-09-09T21:21:52;3.85;;;1.27;;
47856;SDS011;33618;49.972;8.242;2022-09-09T21:24:37;2.17;;;1.20;;
47856;SDS011;33618;49.972;8.242;2022-09-09T21:27:22;1.55;;;1.40;;
47856;SDS011;33618;49.972;8.242;2022-09-09T21:30:08;2.05;;;1.10;;
47856;SDS011;33618;49.972;8.242;2022-09-09T21:35:40;3.83;;;1.30;;
47856;SDS011;33618;49.972;8.242;2022-09-09T21:38:26;2.55;;;1.38;;
47856;SDS011;33618;49.972;8.242;2022-09-09T21:41:12;3.50;;;1.50;;
47856;SDS011;33618;49.972;8.242;2022-09-09T21:43:59;2.65;;;1.20;;
47856;SDS011;33618;49.972;8.242;2022-09-09T21:46:44;2.25;;;1.50;;
47856;SDS011;33618;49.972;8.242;2022-09-09T21:49:31;1.70;;;1.23;;
47856;SDS011;33618;49.972;8.242;2022-09-09T21:52:17;1.50;;;1.33;;
47856;SDS011;33618;49.972;8.242;2022-09-09T21:55:02;1.65;;;1.25;;
47856;SDS011;33618;49.972;8.242;2022-09-09T21:57:49;2.45;;;1.40;;
47856;SDS011;33618;49.972;8.242;2022-09-09T22:00:35;2.30;;;1.42;;
47856;SDS011;33618;49.972;8.242;2022-09-09T22:03:24;2.47;;;1.00;;